createdAt,value
2022-10-12T00:02:00.170Z,17.37
2022-10-12T00:05:03.296Z,16.37
2022-10-12T00:08:06.515Z,18.77
2022-10-12T00:11:15.101Z,17.40
2022-10-12T00:14:18.126Z,17.03
2022-10-12T00:17:21.118Z,16.03
2022-10-12T00:20:24.163Z,15.83
2022-10-12T00:23:27.255Z,16.27
2022-10-12T00:26:33.178Z,16.07
2022-10-12T00:29:36.564Z,15.17
2022-10-12T00:32:39.659Z,14.90
2022-10-12T00:35:42.594Z,15.47
2022-10-12T00:38:46.198Z,15.83
2022-10-12T00:41:50.413Z,14.43
2022-10-12T00:44:54.110Z,16.50
2022-10-12T00:48:00.159Z,15.17
2022-10-12T00:51:04.035Z,14.80
2022-10-12T00:54:11.366Z,15.37
2022-10-12T00:57:17.793Z,14.10
2022-10-12T01:00:22.218Z,15.30
2022-10-12T01:03:25.776Z,14.23
2022-10-12T01:06:29.078Z,15.30
2022-10-12T01:09:32.537Z,15.67
2022-10-12T01:12:38.631Z,14.37
2022-10-12T01:15:49.785Z,16.03
2022-10-12T01:19:00.460Z,16.20
2022-10-12T01:22:07.029Z,14.10
2022-10-12T01:25:23.958Z,15.23
2022-10-12T01:28:37.200Z,14.43
2022-10-12T01:31:47.922Z,14.20
2022-10-12T01:35:00.187Z,14.23
2022-10-12T01:38:16.483Z,15.83
2022-10-12T01:41:25.913Z,14.80
2022-10-12T01:44:29.995Z,13.50
2022-10-12T01:47:36.348Z,15.00
2022-10-12T01:50:51.603Z,14.90
2022-10-12T01:54:06.727Z,14.90
2022-10-12T01:57:18.284Z,16.03
2022-10-12T02:00:22.124Z,14.80
2022-10-12T02:03:35.806Z,15.47
2022-10-12T02:06:43.431Z,15.50
2022-10-12T02:09:46.466Z,14.70
2022-10-12T02:12:52.591Z,13.87
2022-10-12T02:15:56.358Z,16.57
2022-10-12T02:19:01.344Z,14.47
2022-10-12T02:22:07.859Z,13.87
2022-10-12T02:25:16.683Z,15.10
2022-10-12T02:28:23.830Z,14.27
2022-10-12T02:31:36.567Z,14.80
2022-10-12T02:34:46.948Z,14.47
2022-10-12T02:37:55.045Z,14.37
2022-10-12T02:41:02.534Z,15.03
2022-10-12T02:44:09.928Z,15.07
2022-10-12T02:47:15.228Z,15.17
2022-10-12T02:50:22.860Z,15.97
2022-10-12T02:53:28.894Z,15.93
2022-10-12T02:56:34.312Z,16.27
2022-10-12T02:59:37.922Z,16.00
2022-10-12T03:02:40.977Z,15.73
2022-10-12T03:05:45.442Z,17.23
2022-10-12T03:08:48.408Z,13.73
2022-10-12T03:11:51.348Z,15.70
2022-10-12T03:14:54.273Z,15.40
2022-10-12T03:17:57.877Z,15.23
2022-10-12T03:21:02.210Z,16.07
2022-10-12T03:24:05.342Z,14.90
2022-10-12T03:27:08.267Z,15.07
2022-10-12T03:30:12.669Z,16.43
2022-10-12T03:33:15.596Z,16.77
2022-10-12T03:36:19.884Z,16.83
2022-10-12T03:39:22.825Z,16.00
2022-10-12T03:42:25.781Z,16.93
2022-10-12T03:45:28.980Z,15.20
2022-10-12T03:48:31.946Z,15.30
2022-10-12T03:51:36.445Z,15.33
2022-10-12T03:54:39.367Z,15.63
2022-10-12T03:57:42.300Z,15.93
2022-10-12T04:00:45.273Z,16.30
2022-10-12T04:03:48.392Z,15.33
2022-10-12T04:06:52.649Z,15.73
2022-10-12T04:09:55.571Z,15.23
2022-10-12T04:12:58.872Z,17.90
2022-10-12T04:16:03.898Z,16.07
2022-10-12T04:19:06.824Z,14.73
2022-10-12T04:22:11.171Z,14.87
2022-10-12T04:25:14.296Z,15.67
2022-10-12T04:28:17.294Z,15.73
2022-10-12T04:31:20.240Z,15.73
2022-10-12T04:34:23.463Z,15.73
2022-10-12T04:37:29.049Z,16.40
2022-10-12T04:40:32.120Z,15.03
2022-10-12T04:43:35.143Z,17.40
2022-10-12T04:46:38.090Z,16.40
2022-10-12T04:49:41.035Z,14.30
2022-10-12T04:52:45.321Z,13.43
2022-10-12T04:55:48.268Z,16.10
2022-10-12T04:58:51.330Z,15.30
2022-10-12T05:01:55.110Z,15.93
2022-10-12T05:04:58.134Z,14.60
2022-10-12T05:08:02.883Z,15.40
2022-10-12T05:11:06.158Z,14.40
2022-10-12T05:14:10.140Z,15.93
2022-10-12T05:17:13.399Z,14.63
2022-10-12T05:20:16.515Z,15.73
2022-10-12T05:23:20.842Z,15.50
2022-10-12T05:26:23.802Z,15.40
2022-10-12T05:29:27.094Z,13.80
2022-10-12T05:32:30.033Z,14.80
2022-10-12T05:35:32.932Z,13.03
2022-10-12T05:38:37.223Z,14.50
2022-10-12T05:41:40.418Z,12.93
2022-10-12T05:44:43.562Z,14.27
2022-10-12T05:47:46.538Z,13.07
2022-10-12T05:50:49.432Z,13.63
2022-10-12T05:53:53.658Z,13.03
2022-10-12T05:56:57.186Z,12.40
2022-10-12T06:00:00.147Z,13.47
2022-10-12T06:03:03.070Z,12.87
2022-10-12T06:06:07.388Z,12.30
2022-10-12T06:09:12.336Z,13.63
2022-10-12T06:12:16.290Z,12.40
2022-10-12T06:15:19.235Z,13.50
2022-10-12T06:18:22.229Z,11.60
2022-10-12T06:21:34.011Z,13.70
2022-10-12T06:24:39.229Z,12.30
2022-10-12T06:27:46.979Z,12.90
2022-10-12T06:30:55.145Z,13.37
2022-10-12T06:33:58.103Z,12.07
2022-10-12T06:37:02.075Z,12.33
2022-10-12T06:40:08.445Z,13.07
2022-10-12T06:43:12.047Z,12.57
2022-10-12T06:46:14.980Z,13.90
2022-10-12T06:49:20.121Z,12.00
2022-10-12T06:52:24.090Z,13.00
2022-10-12T06:55:28.455Z,12.40
2022-10-12T06:58:31.480Z,12.40
2022-10-12T07:01:34.476Z,13.90
2022-10-12T07:04:38.069Z,15.43
2022-10-12T07:07:41.105Z,14.40
2022-10-12T07:10:45.330Z,12.57
2022-10-12T07:13:48.451Z,15.17
2022-10-12T07:16:55.368Z,13.00
2022-10-12T07:19:58.590Z,13.50
2022-10-12T07:23:01.533Z,14.07
2022-10-12T07:26:06.630Z,14.10
2022-10-12T07:29:09.658Z,11.53
2022-10-12T07:32:12.754Z,14.70
2022-10-12T07:35:15.781Z,13.73
2022-10-12T07:38:18.715Z,13.57
2022-10-12T07:41:23.337Z,13.77
2022-10-12T07:44:26.356Z,13.30
2022-10-12T07:47:29.681Z,14.47
2022-10-12T07:50:32.643Z,16.10
2022-10-12T07:53:36.219Z,14.80
2022-10-12T07:56:40.552Z,15.43
2022-10-12T07:59:43.621Z,14.03
2022-10-12T08:02:46.587Z,15.60
2022-10-12T08:05:49.848Z,16.40
2022-10-12T08:08:53.349Z,16.83
2022-10-12T08:11:57.649Z,15.43
2022-10-12T08:15:00.634Z,14.73
2022-10-12T08:18:03.577Z,14.90
2022-10-12T08:21:08.180Z,13.70
2022-10-12T08:24:11.547Z,13.30
2022-10-12T08:27:15.843Z,13.40
2022-10-12T08:30:19.055Z,12.10
2022-10-12T08:33:22.053Z,11.53
2022-10-12T08:36:25.315Z,12.70
2022-10-12T08:39:28.652Z,12.80
2022-10-12T08:42:46.548Z,11.73
2022-10-12T08:45:55.114Z,11.50
2022-10-12T08:49:04.565Z,9.63
2022-10-12T08:52:23.770Z,10.53
2022-10-12T08:55:37.509Z,10.20
2022-10-12T08:58:41.802Z,10.17
2022-10-12T09:02:03.755Z,9.13
2022-10-12T09:05:11.094Z,9.23
2022-10-12T09:08:28.486Z,9.20
2022-10-12T09:11:49.992Z,9.47
2022-10-12T09:15:01.225Z,8.47
2022-10-12T09:18:12.567Z,8.27
2022-10-12T09:21:20.696Z,10.13
2022-10-12T09:24:28.786Z,10.00
2022-10-12T09:27:32.882Z,8.03
2022-10-12T09:30:42.710Z,7.13
2022-10-12T09:33:52.181Z,7.33
2022-10-12T09:36:55.524Z,7.87
2022-10-12T09:39:59.095Z,7.70
2022-10-12T09:43:04.874Z,9.67
2022-10-12T09:46:15.387Z,7.50
2022-10-12T09:49:19.115Z,5.13
2022-10-12T09:52:27.358Z,5.33
2022-10-12T09:55:30.351Z,5.53
2022-10-12T09:58:42.978Z,4.43
2022-10-12T10:01:59.373Z,5.00
2022-10-12T10:05:29.193Z,4.17
2022-10-12T10:08:42.338Z,4.67
2022-10-12T10:11:45.820Z,4.67
2022-10-12T10:14:49.122Z,4.75
2022-10-12T10:17:57.039Z,4.22
2022-10-12T10:21:02.232Z,4.30
2022-10-12T10:24:07.424Z,3.78
2022-10-12T10:27:32.571Z,3.60
2022-10-12T10:30:40.593Z,4.05
2022-10-12T10:33:45.850Z,3.60
2022-10-12T10:36:52.571Z,3.40
2022-10-12T10:39:57.890Z,3.38
2022-10-12T10:43:05.340Z,3.88
2022-10-12T10:46:08.397Z,3.97
2022-10-12T10:49:29.791Z,3.75
2022-10-12T10:52:36.630Z,4.03
2022-10-12T10:55:48.310Z,3.75
2022-10-12T10:58:53.625Z,3.20
2022-10-12T11:01:59.855Z,3.72
2022-10-12T11:05:15.688Z,3.80
2022-10-12T11:08:24.037Z,3.30
2022-10-12T11:11:33.452Z,3.22
2022-10-12T11:14:42.240Z,3.33
2022-10-12T11:17:48.477Z,3.63
2022-10-12T11:20:57.719Z,3.88
2022-10-12T11:24:10.494Z,3.05
2022-10-12T11:27:18.995Z,3.30
2022-10-12T11:30:25.083Z,3.53
2022-10-12T11:33:35.077Z,3.80
2022-10-12T11:37:07.455Z,3.92
2022-10-12T11:40:31.106Z,3.00
2022-10-12T11:43:43.049Z,3.10
2022-10-12T11:46:50.736Z,4.22
2022-10-12T11:50:00.395Z,3.03
2022-10-12T11:53:09.767Z,3.50
2022-10-12T11:56:21.694Z,3.47
2022-10-12T11:59:35.921Z,3.00
2022-10-12T12:02:46.721Z,3.65
2022-10-12T12:05:52.644Z,3.63
2022-10-12T12:09:21.146Z,4.05
2022-10-12T12:12:26.651Z,4.30
2022-10-12T12:15:29.709Z,3.88
2022-10-12T12:18:37.170Z,3.53
2022-10-12T12:22:20.704Z,3.97
2022-10-12T12:25:34.343Z,3.60
2022-10-12T12:28:39.316Z,3.22
2022-10-12T12:31:42.795Z,3.25
2022-10-12T12:35:00.291Z,2.80
2022-10-12T12:38:24.054Z,3.00
2022-10-12T12:41:53.210Z,3.38
2022-10-12T12:44:58.733Z,3.35
2022-10-12T12:48:01.789Z,3.50
2022-10-12T12:51:06.157Z,2.95
2022-10-12T12:54:19.138Z,4.13
2022-10-12T12:57:44.292Z,3.80
2022-10-12T13:01:01.763Z,3.20
2022-10-12T13:04:33.265Z,3.03
2022-10-12T13:08:29.903Z,3.58
2022-10-12T13:11:53.139Z,3.22
2022-10-12T13:15:17.747Z,3.47
2022-10-12T13:18:52.632Z,3.15
2022-10-12T13:21:57.721Z,2.80
2022-10-12T13:25:07.591Z,3.67
2022-10-12T13:28:16.628Z,3.42
2022-10-12T13:31:27.314Z,2.60
2022-10-12T13:34:37.397Z,3.15
2022-10-12T13:37:40.339Z,3.35
2022-10-12T13:40:51.538Z,3.10
2022-10-12T13:43:57.171Z,3.10
2022-10-12T13:47:07.954Z,3.30
2022-10-12T13:50:19.433Z,3.58
2022-10-12T13:53:22.843Z,3.20
2022-10-12T13:56:28.953Z,2.90
2022-10-12T13:59:40.543Z,3.20
2022-10-12T14:02:56.722Z,2.80
2022-10-12T14:06:04.070Z,2.38
2022-10-12T14:09:11.068Z,3.15
2022-10-12T14:12:15.289Z,3.88
2022-10-12T14:15:18.914Z,3.08
2022-10-12T14:18:41.459Z,2.78
2022-10-12T14:21:48.704Z,2.88
2022-10-12T14:24:53.204Z,3.10
2022-10-12T14:27:59.394Z,3.08
2022-10-12T14:31:03.423Z,3.00
2022-10-12T14:34:36.354Z,2.60
2022-10-12T14:37:39.400Z,3.40
2022-10-12T14:40:42.441Z,3.78
2022-10-12T14:43:45.540Z,7.20
2022-10-12T14:46:53.525Z,4.53
2022-10-12T14:50:00.335Z,4.70
2022-10-12T14:53:06.725Z,6.90
2022-10-12T14:56:10.850Z,8.75
2022-10-12T14:59:14.288Z,7.88
2022-10-12T15:02:23.685Z,4.85
2022-10-12T15:05:33.111Z,4.05
2022-10-12T15:08:36.258Z,4.47
2022-10-12T15:11:47.666Z,5.00
2022-10-12T15:14:55.321Z,4.90
2022-10-12T15:18:00.496Z,5.93
2022-10-12T15:21:05.107Z,6.05
2022-10-12T15:24:16.303Z,4.15
2022-10-12T15:27:19.462Z,5.38
2022-10-12T15:30:22.404Z,3.92
2022-10-12T15:33:25.539Z,4.03
2022-10-12T15:36:29.774Z,3.63
2022-10-12T15:39:32.792Z,3.80
2022-10-12T15:42:38.248Z,4.13
2022-10-12T15:45:42.141Z,3.90
2022-10-12T15:48:45.191Z,3.97
2022-10-12T15:51:52.226Z,3.63
2022-10-12T15:54:55.894Z,3.97
2022-10-12T15:57:59.966Z,5.75
2022-10-12T16:01:03.200Z,5.45
2022-10-12T16:04:08.102Z,4.30
2022-10-12T16:07:12.780Z,4.60
2022-10-12T16:10:18.667Z,3.95
2022-10-12T16:13:21.800Z,5.47
2022-10-12T16:16:24.969Z,6.27
2022-10-12T16:19:27.888Z,6.57
2022-10-12T16:22:34.137Z,4.03
2022-10-12T16:25:37.295Z,4.27
2022-10-12T16:28:40.447Z,4.37
2022-10-12T16:31:43.628Z,4.23
2022-10-12T16:34:46.549Z,5.07
2022-10-12T16:37:50.991Z,4.13
2022-10-12T16:40:53.971Z,3.83
2022-10-12T16:43:56.945Z,4.83
2022-10-12T16:47:02.002Z,4.00
2022-10-12T16:50:06.125Z,5.13
2022-10-12T16:53:10.418Z,5.10
2022-10-12T16:56:13.367Z,6.80
2022-10-12T16:59:16.341Z,5.23
2022-10-12T17:02:20.584Z,6.33
2022-10-12T17:05:23.522Z,6.20
2022-10-12T17:08:27.948Z,6.00
2022-10-12T17:11:31.127Z,5.77
2022-10-12T17:14:34.159Z,5.30
2022-10-12T17:17:37.107Z,6.13
2022-10-12T17:20:40.131Z,6.20
2022-10-12T17:23:44.574Z,7.03
2022-10-12T17:26:49.037Z,7.03
2022-10-12T17:29:52.179Z,6.90
2022-10-12T17:32:55.202Z,9.63
2022-10-12T17:35:58.389Z,13.50
2022-10-12T17:39:03.032Z,11.03
2022-10-12T17:42:06.727Z,9.77
2022-10-12T17:45:11.010Z,14.00
2022-10-12T17:48:15.312Z,13.07
2022-10-12T17:51:22.148Z,14.23
2022-10-12T17:54:26.822Z,11.70
2022-10-12T17:57:29.939Z,11.87
2022-10-12T18:00:33.124Z,10.63
2022-10-12T18:03:36.485Z,10.53
2022-10-12T18:06:40.960Z,10.80
2022-10-12T18:09:47.905Z,12.37
2022-10-12T18:12:51.006Z,12.13
2022-10-12T18:15:55.789Z,10.97
2022-10-12T18:19:01.345Z,12.97
2022-10-12T18:22:04.886Z,12.40
2022-10-12T18:25:10.039Z,12.07
2022-10-12T18:28:14.131Z,12.03
2022-10-12T18:31:24.155Z,11.40
2022-10-12T18:34:27.227Z,11.73
2022-10-12T18:37:30.288Z,11.80
2022-10-12T18:40:39.766Z,10.80
2022-10-12T18:43:45.634Z,10.10
2022-10-12T18:46:49.117Z,11.17
2022-10-12T18:49:52.215Z,10.70
2022-10-12T18:52:55.887Z,9.77
2022-10-12T18:56:03.028Z,10.20
2022-10-12T18:59:07.939Z,11.43
2022-10-12T19:02:11.275Z,18.47
2022-10-12T19:05:14.263Z,12.50
2022-10-12T19:08:17.263Z,10.67
2022-10-12T19:11:24.443Z,10.40
2022-10-12T19:14:27.373Z,9.87
2022-10-12T19:17:32.409Z,9.27
2022-10-12T19:20:38.215Z,9.20
2022-10-12T19:23:42.164Z,9.37
2022-10-12T19:26:46.569Z,9.40
2022-10-12T19:29:50.974Z,9.33
2022-10-12T19:32:53.957Z,9.20
2022-10-12T19:35:57.436Z,8.37
2022-10-12T19:39:04.150Z,9.13
2022-10-12T19:42:08.598Z,9.43
2022-10-12T19:45:12.024Z,8.97
2022-10-12T19:48:14.991Z,9.20
2022-10-12T19:51:19.601Z,9.07
2022-10-12T19:54:22.599Z,9.23
2022-10-12T19:57:28.149Z,9.57
2022-10-12T20:00:33.614Z,10.50
2022-10-12T20:03:37.444Z,8.50
2022-10-12T20:06:41.173Z,8.93
2022-10-12T20:09:44.435Z,9.80
2022-10-12T20:12:48.750Z,9.87
2022-10-12T20:15:53.796Z,9.50
2022-10-12T20:19:06.929Z,10.60
2022-10-12T20:22:10.319Z,10.27
2022-10-12T20:25:13.661Z,10.17
2022-10-12T20:28:19.368Z,10.13
2022-10-12T20:31:27.979Z,10.57
2022-10-12T20:34:32.372Z,9.43
2022-10-12T20:37:38.742Z,10.40
2022-10-12T20:40:44.060Z,10.60
2022-10-12T20:43:57.380Z,10.10
2022-10-12T20:47:03.409Z,9.00
2022-10-12T20:50:07.854Z,10.30
2022-10-12T20:53:16.960Z,9.67
2022-10-12T20:56:20.457Z,10.37
2022-10-12T20:59:25.003Z,10.60
2022-10-12T21:02:28.278Z,13.03
2022-10-12T21:05:37.974Z,12.03
2022-10-12T21:08:41.817Z,10.53
2022-10-12T21:11:49.745Z,8.93
2022-10-12T21:14:54.984Z,10.03
2022-10-12T21:17:58.247Z,9.30
2022-10-12T21:21:08.378Z,10.20
2022-10-12T21:24:11.908Z,9.33
2022-10-12T21:27:17.902Z,8.50
2022-10-12T21:30:24.947Z,10.20
2022-10-12T21:33:35.481Z,9.37
2022-10-12T21:36:42.320Z,9.50
2022-10-12T21:39:46.467Z,8.90
2022-10-12T21:42:53.987Z,8.83
2022-10-12T21:46:04.789Z,10.80
2022-10-12T21:49:08.791Z,9.43
2022-10-12T21:52:12.056Z,10.33
2022-10-12T21:55:15.979Z,9.17
2022-10-12T21:58:19.634Z,8.10
2022-10-12T22:01:31.304Z,9.53
2022-10-12T22:04:37.635Z,8.83
2022-10-12T22:07:44.279Z,8.53
2022-10-12T22:10:49.807Z,9.33
2022-10-12T22:13:58.268Z,10.43
2022-10-12T22:17:02.742Z,9.87
2022-10-12T22:20:15.542Z,9.43
2022-10-12T22:23:41.897Z,9.90
2022-10-12T22:26:48.265Z,9.17
2022-10-12T22:30:00.554Z,9.67
2022-10-12T22:33:05.218Z,9.00
2022-10-12T22:36:18.058Z,9.23
2022-10-12T22:39:21.261Z,8.93
2022-10-12T22:42:24.792Z,10.77
2022-10-12T22:45:28.271Z,9.47
2022-10-12T22:48:36.379Z,8.67
2022-10-12T22:51:40.075Z,9.03
2022-10-12T22:54:43.210Z,8.73
2022-10-12T22:57:49.298Z,8.50
2022-10-12T23:01:08.096Z,8.43
2022-10-12T23:04:17.436Z,8.07
2022-10-12T23:07:20.832Z,7.97
2022-10-12T23:10:28.966Z,8.03
2022-10-12T23:13:32.196Z,9.10
2022-10-12T23:16:37.671Z,9.10
2022-10-12T23:19:42.214Z,8.40
2022-10-12T23:22:54.298Z,8.63
2022-10-12T23:26:09.432Z,10.10
2022-10-12T23:29:15.593Z,8.20
2022-10-12T23:32:21.317Z,8.53
2022-10-12T23:35:28.761Z,10.73
2022-10-12T23:38:41.394Z,10.43
2022-10-12T23:41:47.118Z,10.10
2022-10-12T23:44:58.978Z,10.97
2022-10-12T23:48:04.244Z,11.30
2022-10-12T23:51:12.431Z,12.23
2022-10-12T23:54:18.224Z,12.10
2022-10-12T23:57:45.516Z,11.50
